sensor_id;sensor_type;location;lat;lon;timestamp;P1;durP1;ratioP1;P2;durP2;ratioP2
49318;SDS011;35818;44.498;0.166;2022-08-23T00:00:03;1.20;;;0.43;;
49318;SDS011;35818;44.498;0.166;2022-08-23T00:02:32;0.77;;;0.40;;
49318;SDS011;35818;44.498;0.166;2022-08-23T00:04:59;1.27;;;0.40;;
49318;SDS011;35818;44.498;0.166;2022-08-23T00:07:24;0.73;;;0.52;;
49318;SDS011;35818;44.498;0.166;2022-08-23T00:09:52;1.02;;;0.40;;
49318;SDS011;35818;44.498;0.166;2022-08-23T00:12:18;1.40;;;0.50;;
49318;SDS011;35818;44.498;0.166;2022-08-23T00:14:47;0.85;;;0.45;;
49318;SDS011;35818;44.498;0.166;2022-08-23T00:17:16;2.67;;;0.52;;
49318;SDS011;35818;44.498;0.166;2022-08-23T00:19:42;1.15;;;0.50;;
49318;SDS011;35818;44.498;0.166;2022-08-23T00:22:08;2.78;;;0.50;;
49318;SDS011;35818;44.498;0.166;2022-08-23T00:24:35;1.90;;;0.50;;
49318;SDS011;35818;44.498;0.166;2022-08-23T00:27:06;0.85;;;0.50;;
49318;SDS011;35818;44.498;0.166;2022-08-23T00:29:38;0.70;;;0.30;;
49318;SDS011;35818;44.498;0.166;2022-08-23T00:32:05;1.33;;;0.38;;
49318;SDS011;35818;44.498;0.166;2022-08-23T00:34:33;1.48;;;0.63;;
49318;SDS011;35818;44.498;0.166;2022-08-23T00:37:00;0.57;;;0.35;;
49318;SDS011;35818;44.498;0.166;2022-08-23T00:39:26;0.25;;;0.25;;
49318;SDS011;35818;44.498;0.166;2022-08-23T00:41:54;0.90;;;0.55;;
49318;SDS011;35818;44.498;0.166;2022-08-23T00:44:25;0.68;;;0.30;;
49318;SDS011;35818;44.498;0.166;2022-08-23T00:47:15;0.40;;;0.30;;
49318;SDS011;35818;44.498;0.166;2022-08-23T00:52:50;0.55;;;0.30;;
49318;SDS011;35818;44.498;0.166;2022-08-23T00:55:20;0.32;;;0.30;;
49318;SDS011;35818;44.498;0.166;2022-08-23T00:57:46;1.50;;;0.40;;
49318;SDS011;35818;44.498;0.166;2022-08-23T01:00:12;0.85;;;0.47;;
49318;SDS011;35818;44.498;0.166;2022-08-23T01:02:48;1.40;;;0.50;;
49318;SDS011;35818;44.498;0.166;2022-08-23T01:05:16;2.65;;;0.60;;
49318;SDS011;35818;44.498;0.166;2022-08-23T01:07:53;1.55;;;0.47;;
49318;SDS011;35818;44.498;0.166;2022-08-23T01:13:13;0.90;;;0.30;;
49318;SDS011;35818;44.498;0.166;2022-08-23T01:15:50;0.68;;;0.40;;
49318;SDS011;35818;44.498;0.166;2022-08-23T01:18:21;0.28;;;0.20;;
49318;SDS011;35818;44.498;0.166;2022-08-23T01:20:53;1.15;;;0.38;;
49318;SDS011;35818;44.498;0.166;2022-08-23T01:26:16;0.93;;;0.40;;
49318;SDS011;35818;44.498;0.166;2022-08-23T01:28:43;0.90;;;0.50;;
49318;SDS011;35818;44.498;0.166;2022-08-23T01:31:10;1.08;;;0.40;;
49318;SDS011;35818;44.498;0.166;2022-08-23T01:33:38;1.45;;;0.40;;
49318;SDS011;35818;44.498;0.166;2022-08-23T01:36:07;1.23;;;0.47;;
49318;SDS011;35818;44.498;0.166;2022-08-23T01:38:35;1.42;;;0.50;;
49318;SDS011;35818;44.498;0.166;2022-08-23T01:41:01;1.58;;;0.50;;
49318;SDS011;35818;44.498;0.166;2022-08-23T01:43:27;1.83;;;0.55;;
49318;SDS011;35818;44.498;0.166;2022-08-23T01:45:52;2.05;;;0.40;;
49318;SDS011;35818;44.498;0.166;2022-08-23T01:48:19;0.60;;;0.20;;
49318;SDS011;35818;44.498;0.166;2022-08-23T01:50:45;0.73;;;0.30;;
49318;SDS011;35818;44.498;0.166;2022-08-23T01:53:11;0.55;;;0.32;;
49318;SDS011;35818;44.498;0.166;2022-08-23T01:55:38;2.67;;;0.32;;
49318;SDS011;35818;44.498;0.166;2022-08-23T01:58:06;0.88;;;0.43;;
49318;SDS011;35818;44.498;0.166;2022-08-23T02:00:35;3.47;;;0.40;;
49318;SDS011;35818;44.498;0.166;2022-08-23T02:03:03;1.15;;;0.47;;
49318;SDS011;35818;44.498;0.166;2022-08-23T02:05:30;0.65;;;0.25;;
49318;SDS011;35818;44.498;0.166;2022-08-23T02:07:56;0.73;;;0.40;;
49318;SDS011;35818;44.498;0.166;2022-08-23T02:10:42;0.45;;;0.30;;
49318;SDS011;35818;44.498;0.166;2022-08-23T02:13:08;0.45;;;0.30;;
49318;SDS011;35818;44.498;0.166;2022-08-23T02:15:34;0.20;;;0.20;;
49318;SDS011;35818;44.498;0.166;2022-08-23T02:17:59;0.52;;;0.25;;
49318;SDS011;35818;44.498;0.166;2022-08-23T02:20:25;1.10;;;0.35;;
49318;SDS011;35818;44.498;0.166;2022-08-23T02:22:51;0.90;;;0.22;;
49318;SDS011;35818;44.498;0.166;2022-08-23T02:25:17;0.32;;;0.30;;
49318;SDS011;35818;44.498;0.166;2022-08-23T02:27:42;0.90;;;0.40;;
49318;SDS011;35818;44.498;0.166;2022-08-23T02:30:08;0.82;;;0.40;;
49318;SDS011;35818;44.498;0.166;2022-08-23T02:32:34;0.75;;;0.40;;
49318;SDS011;35818;44.498;0.166;2022-08-23T02:35:00;0.40;;;0.28;;
49318;SDS011;35818;44.498;0.166;2022-08-23T02:37:25;0.40;;;0.30;;
49318;SDS011;35818;44.498;0.166;2022-08-23T02:39:51;2.15;;;0.40;;
49318;SDS011;35818;44.498;0.166;2022-08-23T02:42:17;0.77;;;0.40;;
49318;SDS011;35818;44.498;0.166;2022-08-23T02:44:42;1.42;;;0.30;;
49318;SDS011;35818;44.498;0.166;2022-08-23T02:47:08;0.63;;;0.30;;
49318;SDS011;35818;44.498;0.166;2022-08-23T02:49:35;0.52;;;0.40;;
49318;SDS011;35818;44.498;0.166;2022-08-23T02:52:03;1.05;;;0.20;;
49318;SDS011;35818;44.498;0.166;2022-08-23T02:54:30;0.35;;;0.30;;
49318;SDS011;35818;44.498;0.166;2022-08-23T02:56:56;1.52;;;0.30;;
49318;SDS011;35818;44.498;0.166;2022-08-23T02:59:22;0.28;;;0.22;;
49318;SDS011;35818;44.498;0.166;2022-08-23T03:01:47;0.57;;;0.25;;
49318;SDS011;35818;44.498;0.166;2022-08-23T03:04:13;2.38;;;0.35;;
49318;SDS011;35818;44.498;0.166;2022-08-23T03:06:39;0.55;;;0.30;;
49318;SDS011;35818;44.498;0.166;2022-08-23T03:09:05;0.30;;;0.30;;
49318;SDS011;35818;44.498;0.166;2022-08-23T03:11:31;2.10;;;0.80;;
49318;SDS011;35818;44.498;0.166;2022-08-23T03:13:57;0.38;;;0.30;;
49318;SDS011;35818;44.498;0.166;2022-08-23T03:16:25;1.75;;;0.30;;
49318;SDS011;35818;44.498;0.166;2022-08-23T03:18:51;0.35;;;0.17;;
49318;SDS011;35818;44.498;0.166;2022-08-23T03:21:18;0.68;;;0.43;;
49318;SDS011;35818;44.498;0.166;2022-08-23T03:23:44;0.52;;;0.30;;
49318;SDS011;35818;44.498;0.166;2022-08-23T03:26:10;2.15;;;0.30;;
49318;SDS011;35818;44.498;0.166;2022-08-23T03:28:38;1.30;;;0.30;;
49318;SDS011;35818;44.498;0.166;2022-08-23T03:31:05;0.47;;;0.20;;
49318;SDS011;35818;44.498;0.166;2022-08-23T03:33:32;0.40;;;0.28;;
49318;SDS011;35818;44.498;0.166;2022-08-23T03:35:59;0.40;;;0.30;;
49318;SDS011;35818;44.498;0.166;2022-08-23T03:38:26;1.95;;;0.40;;
49318;SDS011;35818;44.498;0.166;2022-08-23T03:40:52;0.17;;;0.15;;
49318;SDS011;35818;44.498;0.166;2022-08-23T03:43:18;1.58;;;0.38;;
49318;SDS011;35818;44.498;0.166;2022-08-23T03:45:44;0.95;;;0.30;;
49318;SDS011;35818;44.498;0.166;2022-08-23T03:48:10;0.22;;;0.20;;
49318;SDS011;35818;44.498;0.166;2022-08-23T03:50:36;1.05;;;0.22;;
49318;SDS011;35818;44.498;0.166;2022-08-23T03:53:02;0.50;;;0.30;;
49318;SDS011;35818;44.498;0.166;2022-08-23T03:55:28;0.75;;;0.25;;
49318;SDS011;35818;44.498;0.166;2022-08-23T03:57:54;0.60;;;0.30;;
49318;SDS011;35818;44.498;0.166;2022-08-23T04:00:20;1.15;;;0.28;;
49318;SDS011;35818;44.498;0.166;2022-08-23T04:02:45;0.20;;;0.20;;
49318;SDS011;35818;44.498;0.166;2022-08-23T04:05:11;0.60;;;0.30;;
49318;SDS011;35818;44.498;0.166;2022-08-23T04:07:37;0.22;;;0.20;;
49318;SDS011;35818;44.498;0.166;2022-08-23T04:10:05;0.77;;;0.40;;
49318;SDS011;35818;44.498;0.166;2022-08-23T04:12:32;0.50;;;0.30;;
49318;SDS011;35818;44.498;0.166;2022-08-23T04:14:58;2.75;;;0.40;;
49318;SDS011;35818;44.498;0.166;2022-08-23T04:17:24;1.17;;;0.60;;
49318;SDS011;35818;44.498;0.166;2022-08-23T04:19:50;0.38;;;0.20;;
49318;SDS011;35818;44.498;0.166;2022-08-23T04:22:16;0.60;;;0.40;;
49318;SDS011;35818;44.498;0.166;2022-08-23T04:24:43;0.43;;;0.20;;
49318;SDS011;35818;44.498;0.166;2022-08-23T04:27:10;0.47;;;0.30;;
49318;SDS011;35818;44.498;0.166;2022-08-23T04:29:37;2.03;;;0.50;;
49318;SDS011;35818;44.498;0.166;2022-08-23T04:32:04;1.25;;;0.50;;
49318;SDS011;35818;44.498;0.166;2022-08-23T04:34:31;0.45;;;0.20;;
49318;SDS011;35818;44.498;0.166;2022-08-23T04:36:58;0.60;;;0.30;;
49318;SDS011;35818;44.498;0.166;2022-08-23T04:39:24;0.65;;;0.30;;
49318;SDS011;35818;44.498;0.166;2022-08-23T04:41:51;0.60;;;0.38;;
49318;SDS011;35818;44.498;0.166;2022-08-23T04:44:35;0.63;;;0.40;;
49318;SDS011;35818;44.498;0.166;2022-08-23T04:47:00;0.60;;;0.50;;
49318;SDS011;35818;44.498;0.166;2022-08-23T04:49:26;2.47;;;0.73;;
49318;SDS011;35818;44.498;0.166;2022-08-23T04:51:52;1.27;;;0.68;;
49318;SDS011;35818;44.498;0.166;2022-08-23T04:54:18;1.40;;;0.60;;
49318;SDS011;35818;44.498;0.166;2022-08-23T04:56:44;1.80;;;0.43;;
49318;SDS011;35818;44.498;0.166;2022-08-23T04:59:10;0.80;;;0.60;;
49318;SDS011;35818;44.498;0.166;2022-08-23T05:01:36;1.33;;;0.52;;
49318;SDS011;35818;44.498;0.166;2022-08-23T05:04:03;1.92;;;0.75;;
49318;SDS011;35818;44.498;0.166;2022-08-23T05:06:29;2.00;;;0.77;;
49318;SDS011;35818;44.498;0.166;2022-08-23T05:08:55;4.55;;;0.80;;
49318;SDS011;35818;44.498;0.166;2022-08-23T05:11:22;1.75;;;0.60;;
49318;SDS011;35818;44.498;0.166;2022-08-23T05:13:48;2.97;;;0.88;;
49318;SDS011;35818;44.498;0.166;2022-08-23T05:16:14;1.33;;;0.75;;
49318;SDS011;35818;44.498;0.166;2022-08-23T05:18:41;0.90;;;0.63;;
49318;SDS011;35818;44.498;0.166;2022-08-23T05:21:07;5.80;;;0.73;;
49318;SDS011;35818;44.498;0.166;2022-08-23T05:23:37;1.02;;;0.68;;
49318;SDS011;35818;44.498;0.166;2022-08-23T05:26:02;0.80;;;0.50;;
49318;SDS011;35818;44.498;0.166;2022-08-23T05:28:32;1.23;;;0.60;;
49318;SDS011;35818;44.498;0.166;2022-08-23T05:31:01;2.50;;;0.90;;
49318;SDS011;35818;44.498;0.166;2022-08-23T05:33:32;3.42;;;0.70;;
49318;SDS011;35818;44.498;0.166;2022-08-23T05:35:59;1.10;;;0.60;;
49318;SDS011;35818;44.498;0.166;2022-08-23T05:38:26;1.10;;;0.60;;
49318;SDS011;35818;44.498;0.166;2022-08-23T05:40:53;1.17;;;0.63;;
49318;SDS011;35818;44.498;0.166;2022-08-23T05:43:21;0.75;;;0.57;;
49318;SDS011;35818;44.498;0.166;2022-08-23T05:45:48;0.77;;;0.70;;
49318;SDS011;35818;44.498;0.166;2022-08-23T05:48:25;1.67;;;0.80;;
49318;SDS011;35818;44.498;0.166;2022-08-23T05:50:50;1.60;;;1.08;;
49318;SDS011;35818;44.498;0.166;2022-08-23T05:53:16;0.88;;;0.60;;
49318;SDS011;35818;44.498;0.166;2022-08-23T05:55:42;1.67;;;1.10;;
49318;SDS011;35818;44.498;0.166;2022-08-23T05:58:07;0.77;;;0.60;;
49318;SDS011;35818;44.498;0.166;2022-08-23T06:00:33;1.13;;;0.65;;
49318;SDS011;35818;44.498;0.166;2022-08-23T06:02:59;1.50;;;0.98;;
49318;SDS011;35818;44.498;0.166;2022-08-23T06:05:25;2.78;;;1.30;;
49318;SDS011;35818;44.498;0.166;2022-08-23T06:07:51;1.95;;;1.25;;
49318;SDS011;35818;44.498;0.166;2022-08-23T06:10:18;1.17;;;0.65;;
49318;SDS011;35818;44.498;0.166;2022-08-23T06:12:45;1.00;;;0.50;;
49318;SDS011;35818;44.498;0.166;2022-08-23T06:15:12;0.47;;;0.40;;
49318;SDS011;35818;44.498;0.166;2022-08-23T06:17:38;1.65;;;0.80;;
49318;SDS011;35818;44.498;0.166;2022-08-23T06:20:03;0.90;;;0.70;;
49318;SDS011;35818;44.498;0.166;2022-08-23T06:22:31;1.80;;;0.68;;
49318;SDS011;35818;44.498;0.166;2022-08-23T06:24:57;2.38;;;0.85;;
49318;SDS011;35818;44.498;0.166;2022-08-23T06:27:22;1.98;;;1.10;;
49318;SDS011;35818;44.498;0.166;2022-08-23T06:29:51;4.80;;;2.35;;
49318;SDS011;35818;44.498;0.166;2022-08-23T06:32:19;2.42;;;1.20;;
49318;SDS011;35818;44.498;0.166;2022-08-23T06:34:52;2.05;;;1.48;;
49318;SDS011;35818;44.498;0.166;2022-08-23T06:37:23;1.30;;;0.70;;
49318;SDS011;35818;44.498;0.166;2022-08-23T06:40:02;1.10;;;0.90;;
49318;SDS011;35818;44.498;0.166;2022-08-23T06:42:30;1.75;;;0.50;;
49318;SDS011;35818;44.498;0.166;2022-08-23T06:50:10;1.52;;;0.75;;
49318;SDS011;35818;44.498;0.166;2022-08-23T06:58:57;3.03;;;0.80;;
49318;SDS011;35818;44.498;0.166;2022-08-23T07:01:35;1.60;;;1.20;;
49318;SDS011;35818;44.498;0.166;2022-08-23T07:04:05;3.67;;;1.58;;
49318;SDS011;35818;44.498;0.166;2022-08-23T07:06:33;1.67;;;0.98;;
49318;SDS011;35818;44.498;0.166;2022-08-23T07:09:00;3.45;;;0.82;;
49318;SDS011;35818;44.498;0.166;2022-08-23T07:11:34;0.40;;;0.40;;
49318;SDS011;35818;44.498;0.166;2022-08-23T07:14:02;0.68;;;0.40;;
49318;SDS011;35818;44.498;0.166;2022-08-23T07:16:33;1.00;;;0.57;;
49318;SDS011;35818;44.498;0.166;2022-08-23T07:19:07;0.55;;;0.38;;
49318;SDS011;35818;44.498;0.166;2022-08-23T07:21:33;0.60;;;0.38;;
49318;SDS011;35818;44.498;0.166;2022-08-23T07:24:00;1.10;;;0.30;;
49318;SDS011;35818;44.498;0.166;2022-08-23T07:26:27;0.55;;;0.40;;
49318;SDS011;35818;44.498;0.166;2022-08-23T07:28:53;1.40;;;0.30;;
49318;SDS011;35818;44.498;0.166;2022-08-23T07:33:47;0.60;;;0.30;;
49318;SDS011;35818;44.498;0.166;2022-08-23T07:36:14;1.02;;;0.30;;
49318;SDS011;35818;44.498;0.166;2022-08-23T07:38:43;0.45;;;0.20;;
49318;SDS011;35818;44.498;0.166;2022-08-23T07:41:09;0.35;;;0.30;;
49318;SDS011;35818;44.498;0.166;2022-08-23T07:43:36;0.90;;;0.30;;
49318;SDS011;35818;44.498;0.166;2022-08-23T07:46:03;1.15;;;0.43;;
49318;SDS011;35818;44.498;0.166;2022-08-23T07:48:31;1.25;;;0.40;;
49318;SDS011;35818;44.498;0.166;2022-08-23T07:51:15;0.20;;;0.20;;
49318;SDS011;35818;44.498;0.166;2022-08-23T07:54:12;1.75;;;0.20;;
49318;SDS011;35818;44.498;0.166;2022-08-23T07:56:44;0.38;;;0.20;;
49318;SDS011;35818;44.498;0.166;2022-08-23T07:59:22;0.52;;;0.30;;
49318;SDS011;35818;44.498;0.166;2022-08-23T08:01:48;0.88;;;0.43;;
49318;SDS011;35818;44.498;0.166;2022-08-23T08:04:27;0.90;;;0.40;;
49318;SDS011;35818;44.498;0.166;2022-08-23T08:06:53;0.17;;;0.13;;
49318;SDS011;35818;44.498;0.166;2022-08-23T08:09:18;1.95;;;0.30;;
49318;SDS011;35818;44.498;0.166;2022-08-23T08:11:46;1.67;;;0.55;;
49318;SDS011;35818;44.498;0.166;2022-08-23T08:14:15;1.30;;;0.45;;
49318;SDS011;35818;44.498;0.166;2022-08-23T08:16:42;3.42;;;1.05;;
49318;SDS011;35818;44.498;0.166;2022-08-23T08:19:10;0.85;;;0.65;;
49318;SDS011;35818;44.498;0.166;2022-08-23T08:21:44;0.77;;;0.30;;
49318;SDS011;35818;44.498;0.166;2022-08-23T08:24:13;0.40;;;0.40;;
49318;SDS011;35818;44.498;0.166;2022-08-23T08:26:40;1.20;;;0.50;;
49318;SDS011;35818;44.498;0.166;2022-08-23T08:29:07;0.60;;;0.32;;
49318;SDS011;35818;44.498;0.166;2022-08-23T08:31:36;0.50;;;0.30;;
49318;SDS011;35818;44.498;0.166;2022-08-23T08:34:03;0.82;;;0.35;;
49318;SDS011;35818;44.498;0.166;2022-08-23T08:38:59;0.77;;;0.30;;
49318;SDS011;35818;44.498;0.166;2022-08-23T08:41:39;0.50;;;0.32;;
49318;SDS011;35818;44.498;0.166;2022-08-23T08:44:33;0.47;;;0.30;;
49318;SDS011;35818;44.498;0.166;2022-08-23T08:47:08;0.40;;;0.30;;
49318;SDS011;35818;44.498;0.166;2022-08-23T08:49:39;0.60;;;0.47;;
49318;SDS011;35818;44.498;0.166;2022-08-23T08:52:31;2.97;;;0.60;;
49318;SDS011;35818;44.498;0.166;2022-08-23T08:55:03;1.08;;;0.50;;
49318;SDS011;35818;44.498;0.166;2022-08-23T08:57:39;0.75;;;0.32;;
49318;SDS011;35818;44.498;0.166;2022-08-23T09:00:08;0.75;;;0.40;;
49318;SDS011;35818;44.498;0.166;2022-08-23T09:02:40;1.25;;;0.55;;
49318;SDS011;35818;44.498;0.166;2022-08-23T09:05:15;0.57;;;0.30;;
49318;SDS011;35818;44.498;0.166;2022-08-23T09:11:05;0.95;;;0.60;;
49318;SDS011;35818;44.498;0.166;2022-08-23T09:19:10;0.32;;;0.20;;
49318;SDS011;35818;44.498;0.166;2022-08-23T09:21:43;0.57;;;0.30;;
49318;SDS011;35818;44.498;0.166;2022-08-23T09:24:10;0.40;;;0.28;;
49318;SDS011;35818;44.498;0.166;2022-08-23T09:26:35;0.98;;;0.40;;
49318;SDS011;35818;44.498;0.166;2022-08-23T09:29:06;0.88;;;0.40;;
49318;SDS011;35818;44.498;0.166;2022-08-23T09:31:50;0.98;;;0.52;;
49318;SDS011;35818;44.498;0.166;2022-08-23T09:34:20;1.13;;;0.73;;
49318;SDS011;35818;44.498;0.166;2022-08-23T09:37:10;2.47;;;0.70;;
49318;SDS011;35818;44.498;0.166;2022-08-23T09:39:49;2.78;;;0.57;;
49318;SDS011;35818;44.498;0.166;2022-08-23T09:42:33;0.65;;;0.50;;
49318;SDS011;35818;44.498;0.166;2022-08-23T09:47:54;0.45;;;0.45;;
49318;SDS011;35818;44.498;0.166;2022-08-23T09:50:25;0.52;;;0.32;;
49318;SDS011;35818;44.498;0.166;2022-08-23T09:52:55;1.73;;;0.47;;
49318;SDS011;35818;44.498;0.166;2022-08-23T09:55:47;1.10;;;0.40;;
49318;SDS011;35818;44.498;0.166;2022-08-23T09:58:21;0.60;;;0.50;;
49318;SDS011;35818;44.498;0.166;2022-08-23T10:01:01;0.57;;;0.30;;
49318;SDS011;35818;44.498;0.166;2022-08-23T10:03:35;1.35;;;0.70;;
49318;SDS011;35818;44.498;0.166;2022-08-23T10:06:01;1.27;;;0.50;;
49318;SDS011;35818;44.498;0.166;2022-08-23T10:08:32;0.47;;;0.38;;
49318;SDS011;35818;44.498;0.166;2022-08-23T10:13:42;0.57;;;0.30;;
49318;SDS011;35818;44.498;0.166;2022-08-23T10:38:22;1.30;;;0.50;;
49318;SDS011;35818;44.498;0.166;2022-08-23T10:44:17;1.00;;;0.52;;
49318;SDS011;35818;44.498;0.166;2022-08-23T10:49:47;0.55;;;0.35;;
49318;SDS011;35818;44.498;0.166;2022-08-23T10:52:18;0.55;;;0.40;;
49318;SDS011;35818;44.498;0.166;2022-08-23T10:54:50;0.43;;;0.30;;
49318;SDS011;35818;44.498;0.166;2022-08-23T10:57:32;0.45;;;0.45;;
49318;SDS011;35818;44.498;0.166;2022-08-23T11:00:03;0.40;;;0.37;;
49318;SDS011;35818;44.498;0.166;2022-08-23T11:05:22;0.47;;;0.30;;
49318;SDS011;35818;44.498;0.166;2022-08-23T11:07:55;0.60;;;0.40;;
49318;SDS011;35818;44.498;0.166;2022-08-23T11:10:44;0.63;;;0.30;;
49318;SDS011;35818;44.498;0.166;2022-08-23T11:13:18;0.68;;;0.50;;
49318;SDS011;35818;44.498;0.166;2022-08-23T11:15:58;4.18;;;0.90;;
49318;SDS011;35818;44.498;0.166;2022-08-23T11:18:45;0.57;;;0.40;;
49318;SDS011;35818;44.498;0.166;2022-08-23T11:23:46;0.60;;;0.45;;
49318;SDS011;35818;44.498;0.166;2022-08-23T12:27:58;0.32;;;0.20;;
49318;SDS011;35818;44.498;0.166;2022-08-23T12:30:39;1.15;;;0.30;;
49318;SDS011;35818;44.498;0.166;2022-08-23T12:39:36;0.80;;;0.60;;
49318;SDS011;35818;44.498;0.166;2022-08-23T12:42:14;0.60;;;0.40;;
49318;SDS011;35818;44.498;0.166;2022-08-23T12:44:44;0.68;;;0.30;;
49318;SDS011;35818;44.498;0.166;2022-08-23T12:47:22;0.50;;;0.30;;
49318;SDS011;35818;44.498;0.166;2022-08-23T12:49:56;0.20;;;0.20;;
49318;SDS011;35818;44.498;0.166;2022-08-23T12:52:30;0.65;;;0.40;;
49318;SDS011;35818;44.498;0.166;2022-08-23T12:55:14;0.30;;;0.20;;
49318;SDS011;35818;44.498;0.166;2022-08-23T13:06:29;0.30;;;0.20;;
49318;SDS011;35818;44.498;0.166;2022-08-23T13:12:29;0.43;;;0.30;;
49318;SDS011;35818;44.498;0.166;2022-08-23T13:18:04;0.52;;;0.30;;
49318;SDS011;35818;44.498;0.166;2022-08-23T13:20:32;0.55;;;0.17;;
49318;SDS011;35818;44.498;0.166;2022-08-23T13:30:59;0.38;;;0.20;;
49318;SDS011;35818;44.498;0.166;2022-08-23T13:33:30;0.20;;;0.20;;
49318;SDS011;35818;44.498;0.166;2022-08-23T13:38:42;0.45;;;0.30;;
49318;SDS011;35818;44.498;0.166;2022-08-23T13:41:44;0.30;;;0.30;;
49318;SDS011;35818;44.498;0.166;2022-08-23T13:44:41;2.30;;;0.40;;
49318;SDS011;35818;44.498;0.166;2022-08-23T13:47:19;0.20;;;0.20;;
49318;SDS011;35818;44.498;0.166;2022-08-23T13:50:21;0.47;;;0.30;;
49318;SDS011;35818;44.498;0.166;2022-08-23T13:53:00;0.20;;;0.20;;
49318;SDS011;35818;44.498;0.166;2022-08-23T13:55:51;0.85;;;0.30;;
49318;SDS011;35818;44.498;0.166;2022-08-23T13:58:41;0.28;;;0.20;;
49318;SDS011;35818;44.498;0.166;2022-08-23T14:14:29;0.20;;;0.20;;
49318;SDS011;35818;44.498;0.166;2022-08-23T14:17:17;0.25;;;0.20;;
49318;SDS011;35818;44.498;0.166;2022-08-23T14:19:49;1.13;;;0.60;;
49318;SDS011;35818;44.498;0.166;2022-08-23T16:03:55;1.45;;;0.32;;
49318;SDS011;35818;44.498;0.166;2022-08-23T16:06:25;0.13;;;0.13;;
49318;SDS011;35818;44.498;0.166;2022-08-23T16:09:03;1.35;;;0.50;;
49318;SDS011;35818;44.498;0.166;2022-08-23T16:11:34;0.40;;;0.30;;
49318;SDS011;35818;44.498;0.166;2022-08-23T16:14:42;0.52;;;0.35;;
49318;SDS011;35818;44.498;0.166;2022-08-23T16:17:15;0.90;;;0.40;;
49318;SDS011;35818;44.498;0.166;2022-08-23T16:19:55;1.23;;;0.45;;
49318;SDS011;35818;44.498;0.166;2022-08-23T16:23:14;0.47;;;0.20;;
49318;SDS011;35818;44.498;0.166;2022-08-23T16:25:54;0.20;;;0.20;;
49318;SDS011;35818;44.498;0.166;2022-08-23T16:28:44;0.20;;;0.20;;
49318;SDS011;35818;44.498;0.166;2022-08-23T16:31:31;0.85;;;0.40;;
49318;SDS011;35818;44.498;0.166;2022-08-23T16:34:12;0.60;;;0.30;;
49318;SDS011;35818;44.498;0.166;2022-08-23T16:37:28;0.35;;;0.15;;
49318;SDS011;35818;44.498;0.166;2022-08-23T16:43:09;0.95;;;0.30;;
49318;SDS011;35818;44.498;0.166;2022-08-23T16:45:43;0.70;;;0.20;;
49318;SDS011;35818;44.498;0.166;2022-08-23T16:48:12;0.43;;;0.20;;
49318;SDS011;35818;44.498;0.166;2022-08-23T16:50:40;0.30;;;0.28;;
49318;SDS011;35818;44.498;0.166;2022-08-23T16:53:08;0.45;;;0.20;;
49318;SDS011;35818;44.498;0.166;2022-08-23T16:55:36;2.95;;;0.30;;
49318;SDS011;35818;44.498;0.166;2022-08-23T16:58:04;0.60;;;0.22;;
49318;SDS011;35818;44.498;0.166;2022-08-23T17:00:32;0.60;;;0.40;;
49318;SDS011;35818;44.498;0.166;2022-08-23T17:02:59;0.55;;;0.40;;
49318;SDS011;35818;44.498;0.166;2022-08-23T17:05:26;0.60;;;0.30;;
49318;SDS011;35818;44.498;0.166;2022-08-23T17:07:55;0.47;;;0.25;;
49318;SDS011;35818;44.498;0.166;2022-08-23T17:10:22;0.28;;;0.20;;
49318;SDS011;35818;44.498;0.166;2022-08-23T17:12:50;0.98;;;0.22;;
49318;SDS011;35818;44.498;0.166;2022-08-23T17:15:20;0.38;;;0.20;;
49318;SDS011;35818;44.498;0.166;2022-08-23T17:17:51;0.52;;;0.40;;
49318;SDS011;35818;44.498;0.166;2022-08-23T17:20:19;0.20;;;0.10;;
49318;SDS011;35818;44.498;0.166;2022-08-23T17:22:47;1.80;;;0.20;;
49318;SDS011;35818;44.498;0.166;2022-08-23T17:25:15;0.32;;;0.20;;
49318;SDS011;35818;44.498;0.166;2022-08-23T17:27:41;0.55;;;0.40;;
49318;SDS011;35818;44.498;0.166;2022-08-23T17:30:08;1.20;;;0.57;;
49318;SDS011;35818;44.498;0.166;2022-08-23T17:32:36;0.38;;;0.20;;
49318;SDS011;35818;44.498;0.166;2022-08-23T17:35:03;1.85;;;0.40;;
49318;SDS011;35818;44.498;0.166;2022-08-23T17:37:32;0.60;;;0.30;;
49318;SDS011;35818;44.498;0.166;2022-08-23T17:39:59;0.60;;;0.40;;
49318;SDS011;35818;44.498;0.166;2022-08-23T17:42:26;0.73;;;0.50;;
49318;SDS011;35818;44.498;0.166;2022-08-23T17:44:54;0.60;;;0.40;;
49318;SDS011;35818;44.498;0.166;2022-08-23T17:47:21;1.17;;;0.43;;
49318;SDS011;35818;44.498;0.166;2022-08-23T17:49:47;1.42;;;0.50;;
49318;SDS011;35818;44.498;0.166;2022-08-23T17:52:14;0.63;;;0.28;;
49318;SDS011;35818;44.498;0.166;2022-08-23T17:54:40;3.35;;;0.35;;
49318;SDS011;35818;44.498;0.166;2022-08-23T17:57:07;1.58;;;0.68;;
49318;SDS011;35818;44.498;0.166;2022-08-23T17:59:34;3.05;;;0.50;;
49318;SDS011;35818;44.498;0.166;2022-08-23T18:02:00;0.90;;;0.40;;
49318;SDS011;35818;44.498;0.166;2022-08-23T18:04:28;1.55;;;0.40;;
49318;SDS011;35818;44.498;0.166;2022-08-23T18:06:57;0.70;;;0.60;;
49318;SDS011;35818;44.498;0.166;2022-08-23T18:09:23;1.05;;;0.60;;
49318;SDS011;35818;44.498;0.166;2022-08-23T18:11:53;1.20;;;0.60;;
49318;SDS011;35818;44.498;0.166;2022-08-23T18:14:20;0.80;;;0.45;;
49318;SDS011;35818;44.498;0.166;2022-08-23T18:16:47;0.95;;;0.40;;
49318;SDS011;35818;44.498;0.166;2022-08-23T18:19:14;0.68;;;0.40;;
49318;SDS011;35818;44.498;0.166;2022-08-23T18:21:42;1.88;;;0.50;;
49318;SDS011;35818;44.498;0.166;2022-08-23T18:24:08;0.70;;;0.40;;
49318;SDS011;35818;44.498;0.166;2022-08-23T18:26:35;1.88;;;1.05;;
49318;SDS011;35818;44.498;0.166;2022-08-23T18:29:20;0.80;;;0.60;;
49318;SDS011;35818;44.498;0.166;2022-08-23T18:31:46;1.02;;;0.80;;
49318;SDS011;35818;44.498;0.166;2022-08-23T18:34:15;1.65;;;0.70;;
49318;SDS011;35818;44.498;0.166;2022-08-23T18:36:41;1.90;;;0.70;;
49318;SDS011;35818;44.498;0.166;2022-08-23T18:39:09;1.02;;;0.75;;
49318;SDS011;35818;44.498;0.166;2022-08-23T18:41:36;8.30;;;1.17;;
49318;SDS011;35818;44.498;0.166;2022-08-23T18:44:03;1.25;;;0.60;;
49318;SDS011;35818;44.498;0.166;2022-08-23T18:46:32;0.90;;;0.55;;
49318;SDS011;35818;44.498;0.166;2022-08-23T18:48:59;1.58;;;0.70;;
49318;SDS011;35818;44.498;0.166;2022-08-23T18:51:25;1.65;;;0.50;;
49318;SDS011;35818;44.498;0.166;2022-08-23T18:53:51;1.45;;;0.60;;
49318;SDS011;35818;44.498;0.166;2022-08-23T18:56:17;1.20;;;0.60;;
49318;SDS011;35818;44.498;0.166;2022-08-23T18:58:43;1.05;;;0.75;;
49318;SDS011;35818;44.498;0.166;2022-08-23T19:01:19;1.27;;;0.75;;
49318;SDS011;35818;44.498;0.166;2022-08-23T19:03:51;1.02;;;0.60;;
49318;SDS011;35818;44.498;0.166;2022-08-23T19:06:18;1.50;;;0.80;;
49318;SDS011;35818;44.498;0.166;2022-08-23T19:08:44;0.90;;;0.68;;
49318;SDS011;35818;44.498;0.166;2022-08-23T19:11:11;1.77;;;1.00;;
49318;SDS011;35818;44.498;0.166;2022-08-23T19:13:38;3.83;;;1.23;;
49318;SDS011;35818;44.498;0.166;2022-08-23T19:16:08;6.05;;;1.08;;
49318;SDS011;35818;44.498;0.166;2022-08-23T19:18:38;1.60;;;0.75;;
49318;SDS011;35818;44.498;0.166;2022-08-23T19:21:09;1.77;;;1.05;;
49318;SDS011;35818;44.498;0.166;2022-08-23T19:23:57;1.83;;;1.50;;
49318;SDS011;35818;44.498;0.166;2022-08-23T19:26:25;1.90;;;1.20;;
49318;SDS011;35818;44.498;0.166;2022-08-23T19:29:03;2.70;;;1.67;;
49318;SDS011;35818;44.498;0.166;2022-08-23T19:31:31;6.60;;;4.43;;
49318;SDS011;35818;44.498;0.166;2022-08-23T19:34:03;3.20;;;1.67;;
49318;SDS011;35818;44.498;0.166;2022-08-23T19:36:30;2.67;;;1.27;;
49318;SDS011;35818;44.498;0.166;2022-08-23T19:38:56;2.15;;;1.15;;
49318;SDS011;35818;44.498;0.166;2022-08-23T19:41:26;1.80;;;1.20;;
49318;SDS011;35818;44.498;0.166;2022-08-23T19:43:54;2.38;;;1.30;;
49318;SDS011;35818;44.498;0.166;2022-08-23T19:46:20;3.53;;;2.05;;
49318;SDS011;35818;44.498;0.166;2022-08-23T19:48:49;3.85;;;2.00;;
49318;SDS011;35818;44.498;0.166;2022-08-23T19:51:50;1.77;;;1.23;;